Time;durP1;ratioP1;P1;durP2;ratioP2;P2;SDS_P1;SDS_P2;PMS_P1;PMS_P2;Temp;Humidity;BMP_temperature;BMP_pressure;BME280_temperature;BME280_humidity;BME280_pressure;Samples;Min_cycle;Max_cycle;Signal;HPM_P1;HPM_P2
2021/09/17 00:00:27;;;;;;;20.08;15.40;;;;;;;17.61;82.31;96743.14;1715099;81;25767;-94
2021/09/17 00:02:51;;;;;;;20.43;16.23;;;;;;;17.59;82.28;96741.77;1723695;81;27949;-93
2021/09/17 00:05:18;;;;;;;18.37;15.53;;;;;;;17.55;82.34;96738.76;1726475;82;25783;-93
2021/09/17 00:07:44;;;;;;;17.20;15.28;;;;;;;17.47;82.33;96735.22;1720129;81;25717;-94
2021/09/17 00:10:12;;;;;;;18.42;15.80;;;;;;;17.44;82.43;96733.02;1727001;82;25769;-94
2021/09/17 00:12:39;;;;;;;19.35;16.37;;;;;;;17.46;82.56;96719.11;1718407;82;25696;-93
2021/09/17 00:15:08;;;;;;;20.72;15.83;;;;;;;17.48;82.59;96727.84;1716180;81;27628;-93
2021/09/17 00:17:35;;;;;;;19.90;15.70;;;;;;;17.48;82.57;96727.30;1726544;81;25758;-93
2021/09/17 00:20:02;;;;;;;21.82;16.97;;;;;;;17.49;82.60;96724.03;1714018;81;25710;-94
2021/09/17 00:22:28;;;;;;;18.98;15.75;;;;;;;17.53;82.61;96717.73;1720113;81;25910;-93
2021/09/17 00:24:55;;;;;;;18.32;15.65;;;;;;;17.57;82.54;96719.39;1726551;81;25782;-92
2021/09/17 00:27:22;;;;;;;18.77;15.90;;;;;;;17.56;82.55;96720.48;1726696;82;27433;-93
2021/09/17 00:29:48;;;;;;;19.98;15.40;;;;;;;17.58;82.50;96723.76;1716217;81;25777;-93
2021/09/17 00:32:15;;;;;;;17.73;15.88;;;;;;;17.51;82.48;96716.40;1717858;81;25838;-94
2021/09/17 00:34:42;;;;;;;20.70;15.30;;;;;;;17.50;82.56;96716.13;1720089;81;25830;-94
2021/09/17 00:37:08;;;;;;;18.23;15.72;;;;;;;17.47;82.65;96709.30;1726837;82;25973;-94
2021/09/17 00:39:35;;;;;;;17.98;15.53;;;;;;;17.42;82.68;96706.55;1720132;82;27376;-94
2021/09/17 00:42:01;;;;;;;23.35;16.40;;;;;;;17.44;82.76;96706.28;1718972;82;25774;-93
2021/09/17 00:44:29;;;;;;;18.52;16.60;;;;;;;17.45;82.78;96704.65;1697536;82;25867;-93
2021/09/17 00:46:57;;;;;;;21.97;15.72;;;;;;;17.47;82.80;96703.84;1697448;82;25818;-94
2021/09/17 00:49:25;;;;;;;20.50;16.37;;;;;;;17.46;82.77;96702.20;1709696;82;25784;-92
2021/09/17 00:51:52;;;;;;;20.72;15.35;;;;;;;17.45;82.83;96700.56;1697426;83;27545;-91
2021/09/17 00:54:19;;;;;;;21.25;15.53;;;;;;;17.47;82.83;96706.56;1697466;82;25984;-94
2021/09/17 00:56:47;;;;;;;17.92;15.23;;;;;;;17.46;82.87;96701.37;1697364;82;25688;-94
2021/09/17 00:59:14;;;;;;;21.70;15.90;;;;;;;17.47;82.85;96693.47;1718062;82;26556;-94
2021/09/17 01:01:41;;;;;;;22.40;16.20;;;;;;;17.47;82.86;96686.10;1710609;82;25837;-96
2021/09/17 01:04:08;;;;;;;21.17;16.90;;;;;;;17.50;82.87;96683.38;1723943;82;27398;-96
2021/09/17 01:06:37;;;;;;;24.63;17.65;;;;;;;17.52;82.86;96679.27;1690271;83;25806;-95
2021/09/17 01:09:05;;;;;;;24.40;18.65;;;;;;;17.54;82.85;96677.09;1690545;82;25680;-94
2021/09/17 01:11:33;;;;;;;21.07;18.00;;;;;;;17.55;82.86;96672.45;1699822;82;25826;-96
2021/09/17 01:14:03;;;;;;;20.68;17.70;;;;;;;17.55;82.79;96670.54;1701720;82;25268;-96
2021/09/17 01:16:30;;;;;;;24.00;17.77;;;;;;;17.55;82.80;96670.54;1691256;82;27459;-96
2021/09/17 01:18:57;;;;;;;20.35;17.48;;;;;;;17.52;82.79;96670.26;1706049;82;25861;-96
2021/09/17 01:21:25;;;;;;;24.02;18.17;;;;;;;17.51;82.82;96663.19;1716670;82;25631;-96
2021/09/17 01:23:51;;;;;;;18.75;16.62;;;;;;;17.47;82.83;96660.19;1717742;82;25863;-95
2021/09/17 01:26:18;;;;;;;20.65;17.17;;;;;;;17.45;82.88;96661.00;1706674;82;25773;-96
2021/09/17 01:28:45;;;;;;;16.52;14.73;;;;;;;17.43;82.94;96652.27;1720155;82;27394;-96
2021/09/17 01:31:12;;;;;;;15.23;13.62;;;;;;;17.40;82.95;96648.70;1721504;82;25780;-96
2021/09/17 01:33:39;;;;;;;15.45;12.82;;;;;;;17.41;82.94;96653.08;1702817;83;25247;-96
2021/09/17 01:36:11;;;;;;;17.37;13.55;;;;;;;17.40;82.94;96645.16;1691774;82;25738;-96
2021/09/17 01:38:42;;;;;;;15.48;13.15;;;;;;;17.40;82.97;96643.25;1708704;82;25823;-96
2021/09/17 01:41:09;;;;;;;17.45;14.20;;;;;;;17.41;82.90;96639.44;1706859;82;27603;-96
2021/09/17 01:43:36;;;;;;;16.35;13.13;;;;;;;17.41;82.87;96638.07;1693175;82;26412;-96
2021/09/17 01:46:03;;;;;;;16.00;12.53;;;;;;;17.42;82.89;96636.98;1701981;83;25620;-96
2021/09/17 01:48:30;;;;;;;18.55;13.05;;;;;;;17.43;82.90;96633.70;1716679;82;25705;-96
2021/09/17 01:50:58;;;;;;;17.00;12.43;;;;;;;17.43;82.89;96633.16;1715899;82;25590;-95
2021/09/17 01:53:24;;;;;;;18.02;12.58;;;;;;;17.44;82.86;96629.34;1718296;82;27380;-96
2021/09/17 01:55:51;;;;;;;17.00;13.48;;;;;;;17.44;82.87;96632.08;1716450;82;25738;-95
2021/09/17 01:58:18;;;;;;;15.18;12.28;;;;;;;17.44;82.88;96627.98;1719570;82;25810;-96
2021/09/17 02:00:44;;;;;;;17.05;13.20;;;;;;;17.44;82.88;96627.16;1726108;82;25721;-96
2021/09/17 02:03:11;;;;;;;17.62;12.53;;;;;;;17.43;82.91;96623.61;1701581;82;25855;-96
2021/09/17 02:05:37;;;;;;;15.65;12.95;;;;;;;17.41;82.87;96616.79;1690899;82;27611;-96
2021/09/17 02:08:04;;;;;;;16.27;12.55;;;;;;;17.36;82.92;96617.63;1710349;83;25815;-96
2021/09/17 02:10:31;;;;;;;15.80;12.75;;;;;;;17.36;82.99;96614.91;1693962;83;25291;-96
2021/09/17 02:12:57;;;;;;;16.50;13.28;;;;;;;17.37;83.03;96614.36;1670841;82;25894;-96
2021/09/17 02:15:24;;;;;;;15.00;11.93;;;;;;;17.37;82.98;96606.99;1706532;83;25310;-96
2021/09/17 02:17:51;;;;;;;16.65;13.58;;;;;;;17.38;82.98;96607.27;1670067;84;27611;-96
2021/09/17 02:20:17;;;;;;;13.25;11.50;;;;;;;17.39;82.97;96603.42;1697996;83;25769;-96
2021/09/17 02:22:44;;;;;;;17.87;12.58;;;;;;;17.39;82.96;96599.91;1717043;83;25245;-96
2021/09/17 02:25:11;;;;;;;14.35;12.43;;;;;;;17.39;82.96;96599.91;1701395;82;25881;-89
2021/09/17 02:27:37;;;;;;;15.85;12.82;;;;;;;17.38;82.95;96590.90;1701591;81;25247;-93
2021/09/17 02:30:09;;;;;;;13.75;11.25;;;;;;;17.36;82.95;96588.98;1718433;79;27615;-97
2021/09/17 02:32:36;;;;;;;14.25;11.57;;;;;;;17.38;82.97;96586.81;1698894;83;25260;-96
2021/09/17 02:35:04;;;;;;;13.58;12.18;;;;;;;17.37;82.99;96578.34;1697034;83;25749;-95
2021/09/17 02:37:31;;;;;;;14.75;12.35;;;;;;;17.39;83.03;96584.33;1708126;83;25731;-96
2021/09/17 02:39:58;;;;;;;17.15;12.37;;;;;;;17.38;83.04;96573.72;1698511;83;25535;-96
2021/09/17 02:42:25;;;;;;;13.48;12.03;;;;;;;17.37;83.03;96579.72;1713604;83;27583;-96
2021/09/17 02:44:52;;;;;;;13.18;11.50;;;;;;;17.36;83.02;96568.53;1696718;84;25341;-96
2021/09/17 02:47:20;;;;;;;12.78;11.53;;;;;;;17.37;83.07;96567.98;1713891;82;25789;-96
2021/09/17 02:49:47;;;;;;;15.53;11.85;;;;;;;17.38;83.07;96565.53;1697219;83;26700;-96
2021/09/17 02:52:13;;;;;;;13.43;11.35;;;;;;;17.39;83.07;96567.95;1713400;83;25332;-96
2021/09/17 02:54:40;;;;;;;13.18;11.63;;;;;;;17.39;83.05;96562.50;1716196;83;27364;-96
2021/09/17 02:57:06;;;;;;;12.33;10.98;;;;;;;17.41;83.05;96558.95;1697796;84;25686;-96
2021/09/17 02:59:33;;;;;;;17.73;11.90;;;;;;;17.41;83.04;96558.95;1716098;83;25350;-96
2021/09/17 03:01:59;;;;;;;12.45;11.15;;;;;;;17.39;83.00;96554.31;1699890;84;25675;-96
2021/09/17 03:04:26;;;;;;;14.10;11.83;;;;;;;17.35;82.97;96554.61;1698972;84;25276;-96
2021/09/17 03:06:53;;;;;;;12.73;11.43;;;;;;;17.35;83.01;96549.16;1739322;82;27393;-96
2021/09/17 03:09:20;;;;;;;15.15;11.10;;;;;;;17.35;83.04;96549.16;1741726;82;25296;-95
2021/09/17 03:11:46;;;;;;;12.05;10.95;;;;;;;17.35;83.09;96551.89;1743577;82;25492;-96
2021/09/17 03:14:13;;;;;;;11.78;10.48;;;;;;;17.36;83.11;96543.98;1743598;82;25733;-96
2021/09/17 03:16:39;;;;;;;11.43;10.32;;;;;;;17.36;83.07;96542.61;1705474;81;25990;-96
2021/09/17 03:19:06;;;;;;;12.93;10.30;;;;;;;17.35;83.09;96534.16;1702054;83;27315;-95
2021/09/17 03:21:32;;;;;;;12.03;10.50;;;;;;;17.35;83.08;96535.52;1686475;82;25324;-96
2021/09/17 03:23:59;;;;;;;15.05;11.33;;;;;;;17.35;83.04;96531.97;1698972;82;25326;-96
2021/09/17 03:26:26;;;;;;;14.60;11.40;;;;;;;17.34;83.07;96529.80;1702221;82;26891;-95
2021/09/17 03:28:52;;;;;;;13.55;11.45;;;;;;;17.32;83.11;96529.79;1716764;83;25240;-96
2021/09/17 03:31:19;;;;;;;12.68;10.00;;;;;;;17.30;83.14;96528.70;1743860;82;27623;-96
2021/09/17 03:33:45;;;;;;;14.53;11.00;;;;;;;17.31;83.17;96526.25;1729235;82;25303;-96
2021/09/17 03:36:12;;;;;;;11.35;10.25;;;;;;;17.31;83.14;96522.16;1730081;81;25227;-96
2021/09/17 03:38:39;;;;;;;13.08;11.10;;;;;;;17.31;83.19;96519.42;1730904;82;25588;-96
2021/09/17 03:41:10;;;;;;;15.13;11.90;;;;;;;17.32;83.22;96518.34;1744962;81;25215;-96
2021/09/17 03:43:34;;;;;;;13.00;11.70;;;;;;;17.31;83.18;96511.24;1742343;79;27589;-96
2021/09/17 03:46:01;;;;;;;13.80;11.70;;;;;;;17.28;83.20;96511.78;1730571;82;25259;-96
2021/09/17 03:48:28;;;;;;;13.85;11.50;;;;;;;17.28;83.27;96507.15;1742820;82;25659;-96
2021/09/17 03:50:55;;;;;;;13.20;11.78;;;;;;;17.28;83.31;96506.33;1722494;82;25852;-94
2021/09/17 03:53:21;;;;;;;14.07;11.38;;;;;;;17.25;83.33;96502.81;1715613;82;25243;-96
2021/09/17 03:55:48;;;;;;;13.95;12.20;;;;;;;17.22;83.35;96499.27;1731032;82;27534;-96
2021/09/17 03:58:15;;;;;;;14.18;11.88;;;;;;;17.23;83.39;96500.91;1728481;81;25327;-96
2021/09/17 04:00:41;;;;;;;16.02;12.58;;;;;;;17.23;83.46;96492.72;1730394;82;25290;-94
2021/09/17 04:03:08;;;;;;;14.55;11.97;;;;;;;17.23;83.46;96498.17;1743047;82;25698;-96
2021/09/17 04:05:34;;;;;;;12.98;11.68;;;;;;;17.21;83.48;96498.45;1743742;82;25271;-96
2021/09/17 04:08:01;;;;;;;11.80;10.65;;;;;;;17.22;83.47;96492.45;1731177;83;27565;-96
2021/09/17 04:10:28;;;;;;;13.00;11.18;;;;;;;17.23;83.47;96491.36;1743458;81;26228;-96
2021/09/17 04:12:54;;;;;;;13.40;11.97;;;;;;;17.24;83.50;96487.54;1744313;80;25223;-91
2021/09/17 04:15:21;;;;;;;16.45;12.90;;;;;;;17.25;83.49;96490.54;1744187;81;25836;-96
2021/09/17 04:17:47;;;;;;;17.40;11.83;;;;;;;17.23;83.50;96497.63;1743127;81;25261;-96
2021/09/17 04:20:14;;;;;;;15.58;13.20;;;;;;;17.23;83.52;96495.45;1740585;81;27849;-96
2021/09/17 04:22:41;;;;;;;16.67;13.55;;;;;;;17.21;83.51;96494.91;1739517;81;25814;-92
2021/09/17 04:25:10;;;;;;;16.82;13.13;;;;;;;17.21;83.60;96492.99;1739516;81;25717;-93
2021/09/17 04:27:37;;;;;;;15.40;12.55;;;;;;;17.23;83.63;96485.36;1739226;81;26480;-95
2021/09/17 04:30:08;;;;;;;14.98;12.73;;;;;;;17.23;83.59;96483.17;1739483;81;25817;-94
2021/09/17 04:32:35;;;;;;;15.40;12.30;;;;;;;17.23;83.58;96482.63;1739489;81;27616;-95
2021/09/17 04:35:02;;;;;;;14.03;12.58;;;;;;;17.24;83.58;96483.45;1739476;81;25721;-96
2021/09/17 04:37:29;;;;;;;14.87;12.30;;;;;;;17.24;83.59;96483.45;1739670;81;25685;-96
2021/09/17 04:39:55;;;;;;;16.67;11.88;;;;;;;17.24;83.62;96479.36;1739831;81;25805;-93
2021/09/17 04:42:22;;;;;;;15.80;13.50;;;;;;;17.23;83.65;96476.36;1739437;81;25705;-95
2021/09/17 04:44:49;;;;;;;13.20;11.68;;;;;;;17.23;83.60;96470.91;1739624;81;27344;-96
2021/09/17 04:47:15;;;;;;;12.60;11.28;;;;;;;17.22;83.61;96470.63;1739575;81;25780;-94
2021/09/17 04:49:42;;;;;;;13.30;11.50;;;;;;;17.22;83.63;96471.45;1739897;81;25779;-95
2021/09/17 04:52:08;;;;;;;15.65;12.40;;;;;;;17.22;83.65;96467.36;1740222;81;26381;-95
2021/09/17 04:54:35;;;;;;;13.85;10.75;;;;;;;17.24;83.67;96467.91;1739910;81;25328;-95
2021/09/17 04:57:02;;;;;;;19.98;13.98;;;;;;;17.25;83.65;96468.72;1742113;81;27558;-96
2021/09/17 04:59:28;;;;;;;17.70;13.05;;;;;;;17.21;83.62;96467.62;1740109;81;25769;-95
2021/09/17 05:01:55;;;;;;;18.07;14.05;;;;;;;17.17;83.68;96459.17;1739573;81;25798;-95
2021/09/17 05:04:21;;;;;;;23.45;15.15;;;;;;;17.19;83.73;96467.08;1738924;81;26221;-94
2021/09/17 05:06:48;;;;;;;17.80;14.43;;;;;;;17.20;83.79;96459.17;1739622;81;25786;-95
2021/09/17 05:09:14;;;;;;;17.37;15.20;;;;;;;17.21;83.81;96458.91;1740125;81;28358;-96
2021/09/17 05:11:41;;;;;;;18.35;14.65;;;;;;;17.23;83.80;96464.09;1741363;81;25275;-96
2021/09/17 05:14:08;;;;;;;18.48;15.43;;;;;;;17.24;83.81;96456.18;1740345;81;25260;-96
2021/09/17 05:16:34;;;;;;;20.20;16.52;;;;;;;17.28;83.84;96455.33;1740090;81;25931;-96
2021/09/17 05:19:01;;;;;;;21.02;16.93;;;;;;;17.28;83.81;96457.23;1739923;81;25332;-95
2021/09/17 05:21:28;;;;;;;21.75;16.80;;;;;;;17.29;83.82;96454.78;1739972;81;27554;-96
2021/09/17 05:23:54;;;;;;;19.75;16.73;;;;;;;17.30;83.82;96452.33;1719232;81;25738;-94
2021/09/17 05:26:21;;;;;;;18.60;15.55;;;;;;;17.31;83.83;96450.42;1727076;83;25896;-95
2021/09/17 05:28:48;;;;;;;22.02;16.20;;;;;;;17.33;83.86;96454.51;1739646;81;25822;-94
2021/09/17 05:31:15;;;;;;;22.85;17.45;;;;;;;17.33;83.84;96453.14;1739755;81;25783;-94
2021/09/17 05:33:41;;;;;;;22.50;17.55;;;;;;;17.35;83.83;96457.78;1739556;81;27522;-91
2021/09/17 05:36:08;;;;;;;23.67;15.63;;;;;;;17.38;83.82;96455.05;1739571;81;25480;-92
2021/09/17 05:38:34;;;;;;;22.17;16.10;;;;;;;17.36;83.82;96444.96;1739546;81;25797;-92
2021/09/17 05:41:01;;;;;;;23.80;16.17;;;;;;;17.32;83.84;96454.23;1739593;81;25860;-94
2021/09/17 05:43:28;;;;;;;22.27;17.37;;;;;;;17.31;83.93;96455.33;1739602;81;25940;-92
2021/09/17 05:45:54;;;;;;;21.10;16.75;;;;;;;17.34;84.00;96455.33;1739495;81;27434;-90
2021/09/17 05:48:23;;;;;;;21.25;17.27;;;;;;;17.35;83.94;96459.14;1739546;81;25783;-91
2021/09/17 05:50:51;;;;;;;24.12;17.87;;;;;;;17.38;83.96;96457.78;1732992;81;25753;-93
2021/09/17 05:53:18;;;;;;;21.48;17.52;;;;;;;17.42;83.98;96458.84;1726067;82;25828;-93
2021/09/17 05:55:45;;;;;;;24.92;18.40;;;;;;;17.44;83.97;96460.20;1736994;81;25757;-90
2021/09/17 05:58:11;;;;;;;20.95;16.40;;;;;;;17.45;83.92;96462.38;1739561;81;27547;-89
2021/09/17 06:00:38;;;;;;;18.20;14.73;;;;;;;17.47;83.93;96470.56;1739488;81;25912;-89
2021/09/17 06:03:04;;;;;;;18.70;15.20;;;;;;;17.48;83.91;96472.75;1718854;81;25268;-88
2021/09/17 06:05:31;;;;;;;17.23;15.13;;;;;;;17.48;83.91;96474.94;1739549;81;25739;-88
2021/09/17 06:07:58;;;;;;;5.83;5.22;;;;;;;17.48;83.86;96485.84;1739822;81;25818;-92
2021/09/17 06:10:25;;;;;;;2.20;1.37;;;;;;;17.44;83.62;96494.30;1732295;81;28423;-90
2021/09/17 06:12:51;;;;;;;1.75;0.95;;;;;;;17.26;82.88;96484.00;1693431;82;25861;-88
2021/09/17 06:15:18;;;;;;;3.77;0.93;;;;;;;17.06;82.57;96491.64;1679850;83;25699;-90
2021/09/17 06:17:45;;;;;;;3.15;1.20;;;;;;;16.92;82.59;96502.28;1731839;81;25767;-88
2021/09/17 06:20:14;;;;;;;4.45;0.90;;;;;;;16.82;82.70;96514.55;1726581;82;25773;-88
2021/09/17 06:22:43;;;;;;;3.70;1.30;;;;;;;16.71;82.42;96512.91;1725185;82;27380;-87
2021/09/17 06:25:10;;;;;;;2.35;1.27;;;;;;;16.49;82.10;96518.59;1718666;81;25603;-91
2021/09/17 06:27:37;;;;;;;1.10;0.80;;;;;;;16.31;81.96;96527.80;1698066;82;25752;-87
2021/09/17 06:30:06;;;;;;;3.77;1.02;;;;;;;16.11;81.85;96523.95;1706955;81;25895;-91
2021/09/17 06:32:32;;;;;;;2.52;1.30;;;;;;;15.95;81.87;96534.49;1715956;83;25762;-86
2021/09/17 06:34:59;;;;;;;2.17;1.12;;;;;;;15.87;81.99;96531.47;1733296;81;27446;-91
2021/09/17 06:37:26;;;;;;;1.77;1.07;;;;;;;15.77;81.94;96539.88;1727596;81;25838;-88
2021/09/17 06:39:52;;;;;;;4.80;1.32;;;;;;;15.65;81.97;96538.45;1735780;81;25718;-84
2021/09/17 06:42:19;;;;;;;4.08;1.40;;;;;;;15.57;81.96;96534.88;1736051;81;25805;-87
2021/09/17 06:44:46;;;;;;;1.45;1.20;;;;;;;15.45;81.87;96543.22;1723535;82;25811;-85
2021/09/17 06:47:12;;;;;;;1.40;1.30;;;;;;;15.33;81.92;96547.50;1740092;81;27426;-91
2021/09/17 06:49:39;;;;;;;2.92;1.50;;;;;;;15.23;82.05;96560.18;1727851;82;25799;-92
2021/09/17 06:52:07;;;;;;;1.92;1.80;;;;;;;15.18;82.20;96555.55;1740152;81;25701;-87
2021/09/17 06:54:34;;;;;;;3.33;2.08;;;;;;;15.16;82.43;96569.11;1736153;81;26538;-91
2021/09/17 06:57:00;;;;;;;2.55;2.30;;;;;;;15.14;82.68;96575.62;1739635;81;25360;-85
2021/09/17 06:59:27;;;;;;;3.45;2.75;;;;;;;15.11;82.79;96573.95;1705893;83;27444;-93
2021/09/17 07:01:53;;;;;;;2.60;2.35;;;;;;;15.08;82.94;96579.94;1688860;84;25756;-92
2021/09/17 07:04:20;;;;;;;3.02;2.15;;;;;;;15.10;83.00;96586.73;1684084;84;25745;-91
2021/09/17 07:06:47;;;;;;;3.65;2.37;;;;;;;15.09;82.94;96588.38;1705943;83;25839;-95
2021/09/17 07:09:13;;;;;;;3.65;2.02;;;;;;;15.08;82.90;96585.38;1709045;82;26458;-91
2021/09/17 07:11:40;;;;;;;1.80;1.65;;;;;;;15.04;82.84;96585.06;1739935;81;28240;-92
2021/09/17 07:14:06;;;;;;;2.67;2.00;;;;;;;14.98;82.85;96590.70;1740077;82;25816;-91
2021/09/17 07:16:33;;;;;;;2.37;1.90;;;;;;;14.93;82.85;96593.39;1740394;81;25649;-95
2021/09/17 07:18:59;;;;;;;3.47;1.77;;;;;;;14.94;82.92;96590.95;1740300;81;25841;-95
2021/09/17 07:21:26;;;;;;;1.60;1.37;;;;;;;14.92;82.90;96599.36;1740277;81;25736;-92
2021/09/17 07:23:53;;;;;;;3.85;1.50;;;;;;;14.89;82.95;96597.15;1740139;81;27378;-90
2021/09/17 07:26:20;;;;;;;2.52;1.60;;;;;;;14.89;82.96;96614.81;1739975;81;25697;-91
2021/09/17 07:28:46;;;;;;;1.72;1.42;;;;;;;14.88;82.93;96621.86;1740229;81;25665;-90
2021/09/17 07:31:13;;;;;;;2.17;1.72;;;;;;;14.85;82.96;96615.06;1740084;81;25660;-88
2021/09/17 07:33:39;;;;;;;2.20;1.98;;;;;;;14.85;82.96;96625.94;1740118;81;25725;-92
2021/09/17 07:36:06;;;;;;;2.00;1.40;;;;;;;14.80;82.95;96629.12;1740030;81;27371;-91
2021/09/17 07:38:33;;;;;;;2.92;1.55;;;;;;;14.77;82.98;96632.63;1739755;81;25654;-91
2021/09/17 07:40:59;;;;;;;1.77;1.65;;;;;;;14.73;83.05;96632.86;1740155;81;25921;-90
2021/09/17 07:43:26;;;;;;;1.80;1.70;;;;;;;14.68;83.11;96631.46;1740218;81;26667;-91
2021/09/17 07:45:53;;;;;;;1.55;1.45;;;;;;;14.73;83.30;96632.86;1740159;81;25497;-92
2021/09/17 07:48:20;;;;;;;1.32;1.22;;;;;;;14.75;83.17;96634.78;1739998;81;27205;-89
2021/09/17 07:50:46;;;;;;;1.20;1.10;;;;;;;14.76;83.06;96641.86;1739994;81;25885;-95
2021/09/17 07:53:13;;;;;;;1.50;1.30;;;;;;;14.72;83.01;96643.47;1739874;81;25822;-89
2021/09/17 07:55:39;;;;;;;1.72;1.30;;;;;;;14.71;83.08;96641.83;1740040;81;25693;-91
2021/09/17 07:58:06;;;;;;;2.05;1.17;;;;;;;14.75;83.22;96646.19;1740077;81;25736;-95
2021/09/17 08:00:33;;;;;;;1.30;1.12;;;;;;;14.80;83.15;96646.25;1740441;81;27602;-93
2021/09/17 08:03:01;;;;;;;1.98;1.02;;;;;;;14.81;83.00;96654.69;1740106;81;25734;-96
2021/09/17 08:05:27;;;;;;;0.90;0.90;;;;;;;14.83;82.92;96659.87;1719199;81;25685;-89
2021/09/17 08:07:55;;;;;;;1.05;0.93;;;;;;;14.81;82.78;96668.80;1740228;82;25837;-94
2021/09/17 08:10:22;;;;;;;1.30;0.90;;;;;;;14.76;82.51;96669.02;1740402;81;25785;-92
2021/09/17 08:12:50;;;;;;;0.42;0.40;;;;;;;14.73;82.33;96674.96;1723065;82;28287;-90
2021/09/17 08:15:17;;;;;;;2.42;0.90;;;;;;;14.69;82.17;96686.61;1710415;83;25805;-89
2021/09/17 08:17:44;;;;;;;0.72;0.60;;;;;;;14.62;81.99;96693.58;1725843;82;25288;-88
2021/09/17 08:20:12;;;;;;;0.60;0.60;;;;;;;14.56;81.91;96685.11;1739767;81;26326;-85
2021/09/17 08:22:38;;;;;;;0.80;0.70;;;;;;;14.47;81.80;96694.78;1706275;81;25902;-88
2021/09/17 08:25:07;;;;;;;1.30;0.90;;;;;;;14.42;81.89;96694.70;1702608;83;27387;-88
2021/09/17 08:27:33;;;;;;;0.75;0.75;;;;;;;14.37;81.84;96695.42;1710024;81;25942;-89
2021/09/17 08:30:00;;;;;;;2.05;0.90;;;;;;;14.31;81.91;96699.69;1736037;82;25828;-87
2021/09/17 08:32:27;;;;;;;1.75;0.98;;;;;;;14.26;81.98;96699.61;1739923;81;25812;-88
2021/09/17 08:34:53;;;;;;;1.40;1.20;;;;;;;14.19;82.07;96695.73;1740032;81;25771;-89
2021/09/17 08:37:20;;;;;;;1.02;1.00;;;;;;;14.13;82.02;96708.15;1739816;81;27539;-89
2021/09/17 08:39:47;;;;;;;2.12;1.22;;;;;;;14.08;82.14;96702.64;1739596;82;25718;-88
2021/09/17 08:42:13;;;;;;;3.80;1.32;;;;;;;14.05;82.16;96700.70;1739940;81;25807;-88
2021/09/17 08:44:40;;;;;;;3.02;1.37;;;;;;;14.01;82.27;96698.73;1731739;81;26032;-88
2021/09/17 08:47:07;;;;;;;2.62;1.20;;;;;;;13.95;82.32;96699.75;1740000;81;25698;-88
2021/09/17 08:49:36;;;;;;;1.65;1.20;;;;;;;13.93;82.40;96694.56;1739751;82;27472;-88
2021/09/17 08:52:03;;;;;;;3.62;1.40;;;;;;;13.86;82.22;96701.25;1738896;81;25820;-89
2021/09/17 08:54:30;;;;;;;2.62;1.10;;;;;;;13.82;82.38;96692.78;1736160;82;26338;-89
2021/09/17 08:56:57;;;;;;;2.47;1.47;;;;;;;13.81;82.47;96695.73;1739801;81;26515;-87
2021/09/17 08:59:23;;;;;;;3.72;1.37;;;;;;;13.82;82.58;96698.20;1740039;81;25754;-88
2021/09/17 09:01:50;;;;;;;2.27;1.30;;;;;;;13.82;82.51;96701.45;1720711;81;28390;-89
2021/09/17 09:04:30;;;;;;;3.33;1.20;;;;;;;13.81;82.45;96701.98;1708712;83;26424;-86
2021/09/17 09:07:05;;;;;;;2.35;1.20;;;;;;;13.81;82.40;96700.63;1739964;81;26095;-86
2021/09/17 09:09:32;;;;;;;1.65;1.20;;;;;;;13.78;82.37;96704.36;1724269;82;25967;-86
2021/09/17 09:11:58;;;;;;;1.65;1.32;;;;;;;13.79;82.42;96708.19;1714800;82;25760;-91
2021/09/17 09:14:25;;;;;;;1.55;1.10;;;;;;;13.78;82.39;96705.19;1703530;83;27599;-84
2021/09/17 09:16:54;;;;;;;2.83;1.45;;;;;;;13.78;82.39;96709.25;1725833;82;25364;-87
2021/09/17 09:19:37;;;;;;;3.45;1.35;;;;;;;13.76;82.20;96704.64;1726292;81;26209;-88
2021/09/17 09:22:09;;;;;;;2.15;1.20;;;;;;;13.75;82.21;96704.88;1710177;81;26402;-90
2021/09/17 09:24:41;;;;;;;1.72;1.00;;;;;;;13.70;82.23;96708.33;1726579;82;26243;-87
2021/09/17 09:27:16;;;;;;;1.95;1.52;;;;;;;13.74;82.33;96707.30;1726882;82;27389;-88
2021/09/17 09:29:51;;;;;;;1.80;1.30;;;;;;;13.73;82.42;96705.12;1726858;81;26090;-88
2021/09/17 09:32:33;;;;;;;3.58;1.40;;;;;;;13.73;82.40;96709.73;1700914;83;25787;-87
2021/09/17 09:35:06;;;;;;;2.08;1.10;;;;;;;13.77;82.46;96712.20;1725712;82;25743;-87
2021/09/17 09:37:38;;;;;;;1.42;1.07;;;;;;;13.78;82.34;96711.14;1701745;83;25819;-91
2021/09/17 09:40:16;;;;;;;1.52;1.10;;;;;;;13.76;82.21;96707.88;1726023;82;27359;-87
2021/09/17 09:42:45;;;;;;;2.40;1.20;;;;;;;13.76;82.23;96703.81;1739243;82;25693;-86
2021/09/17 09:45:24;;;;;;;2.00;1.40;;;;;;;13.72;82.15;96703.48;1725533;82;25260;-88
2021/09/17 09:47:54;;;;;;;4.17;1.70;;;;;;;13.69;82.15;96712.11;1727373;81;26373;-87
2021/09/17 09:50:30;;;;;;;4.97;2.30;;;;;;;13.64;82.34;96705.27;1706236;83;26136;-87
2021/09/17 09:53:01;;;;;;;3.10;1.65;;;;;;;13.66;82.68;96703.10;1726121;82;27377;-86
2021/09/17 09:55:30;;;;;;;1.57;1.22;;;;;;;13.74;82.87;96702.70;1727016;81;25888;-87
2021/09/17 09:57:58;;;;;;;2.72;1.20;;;;;;;13.78;82.83;96710.61;1726668;82;25791;-87
2021/09/17 10:00:27;;;;;;;2.42;1.35;;;;;;;13.74;82.44;96703.23;1726977;81;26380;-87
2021/09/17 10:02:55;;;;;;;1.82;1.60;;;;;;;13.72;82.47;96711.62;1705805;83;25723;-87
2021/09/17 10:05:26;;;;;;;4.53;2.15;;;;;;;13.74;82.53;96713.55;1726413;82;27613;-87
2021/09/17 10:07:50;;;;;;;4.58;2.62;;;;;;;13.72;82.45;96711.62;1701189;82;25797;-87
2021/09/17 10:10:17;;;;;;;4.62;3.20;;;;;;;13.73;82.44;96712.44;1726995;82;25753;-86
2021/09/17 10:12:46;;;;;;;4.67;2.95;;;;;;;13.71;82.51;96705.91;1739547;81;25668;-86
2021/09/17 10:15:14;;;;;;;3.42;2.50;;;;;;;13.74;82.49;96710.84;1739607;81;25740;-85
2021/09/17 10:17:45;;;;;;;4.80;2.27;;;;;;;13.75;82.59;96712.48;1723806;81;27611;-86
2021/09/17 10:20:12;;;;;;;3.50;2.58;;;;;;;13.79;82.61;96714.14;1725996;82;25682;-86
2021/09/17 10:22:45;;;;;;;2.95;2.15;;;;;;;13.83;82.55;96707.98;1749137;81;25970;-85
2021/09/17 10:25:20;;;;;;;7.05;3.37;;;;;;;13.84;82.48;96706.92;1712382;82;25873;-86
2021/09/17 10:28:03;;;;;;;8.88;3.80;;;;;;;13.85;82.43;96703.14;1727015;83;25735;-87
2021/09/17 10:30:34;;;;;;;6.62;3.35;;;;;;;13.86;82.37;96698.53;1708143;83;27419;-85
2021/09/17 10:33:01;;;;;;;4.03;2.77;;;;;;;13.88;82.44;96706.72;1739617;81;25726;-90
2021/09/17 10:35:44;;;;;;;6.55;2.50;;;;;;;13.92;82.48;96712.45;1739534;81;25734;-86
2021/09/17 10:38:30;;;;;;;5.03;2.67;;;;;;;13.89;82.34;96704.27;1739680;81;25689;-86
2021/09/17 10:41:04;;;;;;;5.58;2.72;;;;;;;13.86;82.36;96704.78;1723197;81;25754;-86
2021/09/17 10:43:40;;;;;;;5.22;3.02;;;;;;;13.82;82.18;96709.59;1739737;81;27535;-89
2021/09/17 10:46:28;;;;;;;3.17;2.67;;;;;;;13.80;82.40;96705.77;1738542;82;26452;-86
2021/09/17 10:48:59;;;;;;;3.72;2.87;;;;;;;13.85;82.47;96713.17;1739458;81;25754;-88
2021/09/17 10:51:40;;;;;;;5.17;3.20;;;;;;;13.90;82.52;96715.41;1739953;81;25734;-86
2021/09/17 10:54:19;;;;;;;6.95;3.55;;;;;;;13.95;82.50;96709.24;1739557;81;25739;-87
2021/09/17 10:56:53;;;;;;;5.15;3.20;;;;;;;13.94;82.29;96704.88;1739361;81;27396;-86
2021/09/17 10:59:25;;;;;;;4.42;3.10;;;;;;;13.97;82.48;96701.14;1739668;81;25655;-86
2021/09/17 11:02:00;;;;;;;5.12;2.45;;;;;;;14.01;82.60;96698.73;1739784;81;25805;-86
2021/09/17 11:04:31;;;;;;;3.42;2.22;;;;;;;14.08;82.57;96702.64;1719259;81;26729;-88
2021/09/17 11:07:25;;;;;;;6.25;2.70;;;;;;;14.12;82.79;96698.36;1739546;81;25688;-87
2021/09/17 11:09:54;;;;;;;5.83;2.70;;;;;;;14.17;82.87;96701.13;1738849;81;27383;-85
2021/09/17 11:12:27;;;;;;;4.08;2.12;;;;;;;14.24;82.86;96703.14;1739492;81;25765;-87
2021/09/17 11:15:07;;;;;;;2.62;2.10;;;;;;;14.31;82.69;96703.77;1739558;81;25792;-87
2021/09/17 11:17:42;;;;;;;3.02;1.87;;;;;;;14.37;82.71;96698.67;1739608;81;25766;-87
2021/09/17 11:20:17;;;;;;;6.05;1.80;;;;;;;14.44;82.77;96689.84;1739707;81;25705;-87
2021/09/17 11:22:58;;;;;;;1.85;1.70;;;;;;;14.50;82.51;96699.68;1739619;81;28239;-88
2021/09/17 11:25:35;;;;;;;3.95;2.27;;;;;;;14.52;82.33;96697.54;1719976;81;25789;-87
2021/09/17 11:28:06;;;;;;;3.02;1.92;;;;;;;14.56;82.32;96695.97;1739591;81;25707;-87